Time;durP1;ratioP1;P1;durP2;ratioP2;P2;SDS_P1;SDS_P2;PMS_P1;PMS_P2;Temp;Humidity;BMP_temperature;BMP_pressure;BME280_temperature;BME280_humidity;BME280_pressure;Samples;Min_cycle;Max_cycle;Signal;HPM_P1;HPM_P2
2021/09/28 00:02:20;;;;;;;14.67;2.93;;;;;;;;;;5043368;28;20181;-71
2021/09/28 00:04:45;;;;;;;10.47;3.27;;;;;;;;;;5049186;28;20251;-71
2021/09/28 00:07:11;;;;;;;11.43;3.37;;;;;;;;;;5045721;28;20185;-70
2021/09/28 00:09:36;;;;;;;9.30;3.10;;;;;;;;;;5039838;28;20214;-70
2021/09/28 00:12:01;;;;;;;12.33;3.47;;;;;;;;;;5048431;28;20192;-71
2021/09/28 00:14:26;;;;;;;11.23;3.00;;;;;;;;;;5049550;28;20231;-71
2021/09/28 00:16:52;;;;;;;13.07;3.23;;;;;;;;;;5049492;28;20717;-70
2021/09/28 00:19:17;;;;;;;12.10;3.30;;;;;;;;;;5037349;28;20247;-70
2021/09/28 00:21:42;;;;;;;13.07;4.93;;;;;;;;;;5046228;28;20264;-71
2021/09/28 00:24:08;;;;;;;12.13;2.90;;;;;;;;;;5046273;28;20581;-71
2021/09/28 00:26:33;;;;;;;17.83;4.90;;;;;;;;;;5049236;28;20197;-70
2021/09/28 00:28:58;;;;;;;11.57;3.40;;;;;;;;;;5042693;28;20221;-70
2021/09/28 00:31:24;;;;;;;17.73;5.20;;;;;;;;;;5046071;28;20264;-70
2021/09/28 00:33:49;;;;;;;19.60;4.70;;;;;;;;;;5044061;28;20232;-70
2021/09/28 00:36:14;;;;;;;10.23;3.43;;;;;;;;;;5044834;28;20185;-70
2021/09/28 00:38:39;;;;;;;10.83;3.10;;;;;;;;;;5026850;28;20197;-70
2021/09/28 00:41:05;;;;;;;11.77;3.67;;;;;;;;;;5052317;28;20186;-70
2021/09/28 00:43:50;;;;;;;16.73;3.80;;;;;;;;;;5049099;28;20197;-69
2021/09/28 00:46:16;;;;;;;15.17;3.83;;;;;;;;;;5051301;28;20169;-69
2021/09/28 00:48:41;;;;;;;14.43;3.90;;;;;;;;;;5051676;28;20166;-70
2021/09/28 00:51:07;;;;;;;16.20;3.97;;;;;;;;;;5059154;28;20224;-70
2021/09/28 00:53:32;;;;;;;12.07;3.63;;;;;;;;;;5052603;28;20177;-72
2021/09/28 00:55:58;;;;;;;9.13;3.50;;;;;;;;;;5052713;28;20822;-69
2021/09/28 00:58:23;;;;;;;16.27;3.40;;;;;;;;;;5050873;28;20166;-71
2021/09/28 01:00:49;;;;;;;10.40;3.80;;;;;;;;;;5051900;28;20541;-71
2021/09/28 01:03:14;;;;;;;16.10;3.60;;;;;;;;;;5049954;28;20596;-71
2021/09/28 01:05:40;;;;;;;20.07;4.60;;;;;;;;;;5051939;28;20162;-69
2021/09/28 01:08:05;;;;;;;17.70;5.10;;;;;;;;;;5049323;28;20185;-72
2021/09/28 01:10:30;;;;;;;14.63;4.03;;;;;;;;;;5051160;28;20220;-72
2021/09/28 01:12:55;;;;;;;15.87;4.30;;;;;;;;;;5043950;28;20252;-71
2021/09/28 01:15:20;;;;;;;16.13;4.30;;;;;;;;;;5050699;28;20264;-71
2021/09/28 01:17:46;;;;;;;16.30;3.50;;;;;;;;;;5044612;28;20575;-71
2021/09/28 01:20:11;;;;;;;17.27;3.93;;;;;;;;;;5045362;28;20224;-68
2021/09/28 01:22:36;;;;;;;15.27;4.33;;;;;;;;;;5031828;28;20214;-68
2021/09/28 01:25:02;;;;;;;10.80;4.37;;;;;;;;;;5032765;28;20260;-70
2021/09/28 01:27:27;;;;;;;12.73;3.90;;;;;;;;;;5030891;28;20184;-69
2021/09/28 01:29:52;;;;;;;9.70;3.80;;;;;;;;;;5031305;28;22052;-71
2021/09/28 01:32:17;;;;;;;9.97;3.80;;;;;;;;;;5030962;28;20185;-70
2021/09/28 01:34:43;;;;;;;15.67;4.00;;;;;;;;;;5029474;28;20177;-69
2021/09/28 01:37:08;;;;;;;14.83;4.90;;;;;;;;;;5038881;28;20220;-70
2021/09/28 01:39:33;;;;;;;16.67;4.67;;;;;;;;;;5030020;28;20201;-70
2021/09/28 01:41:58;;;;;;;14.97;3.93;;;;;;;;;;5029417;28;20708;-71
2021/09/28 01:44:24;;;;;;;14.17;4.23;;;;;;;;;;5031393;28;20906;-71
2021/09/28 01:46:49;;;;;;;16.37;4.50;;;;;;;;;;5032294;28;20193;-71
2021/09/28 01:49:16;;;;;;;16.30;4.77;;;;;;;;;;5031779;28;20205;-71
2021/09/28 01:51:42;;;;;;;15.13;4.50;;;;;;;;;;5030214;28;20177;-72
2021/09/28 01:54:07;;;;;;;16.07;5.17;;;;;;;;;;5045019;28;20182;-70
2021/09/28 01:56:33;;;;;;;13.43;4.37;;;;;;;;;;5031415;28;20185;-70
2021/09/28 01:58:59;;;;;;;10.13;4.77;;;;;;;;;;5030176;28;20583;-70
2021/09/28 02:01:25;;;;;;;13.30;4.50;;;;;;;;;;5031735;28;20276;-72
2021/09/28 02:03:51;;;;;;;19.33;4.83;;;;;;;;;;5033191;28;20212;-72
2021/09/28 02:06:17;;;;;;;16.60;4.70;;;;;;;;;;5033998;28;20174;-69
2021/09/28 02:08:42;;;;;;;16.33;4.87;;;;;;;;;;5030281;28;20177;-70
2021/09/28 02:11:07;;;;;;;9.93;4.53;;;;;;;;;;5030746;28;20182;-71
2021/09/28 02:13:32;;;;;;;14.50;5.57;;;;;;;;;;5030742;28;20185;-69
2021/09/28 02:15:58;;;;;;;13.30;5.00;;;;;;;;;;5032458;28;20268;-71
2021/09/28 02:18:23;;;;;;;14.80;4.20;;;;;;;;;;5030540;28;20221;-72
2021/09/28 02:20:48;;;;;;;14.07;4.20;;;;;;;;;;5032256;28;21400;-71
2021/09/28 02:23:13;;;;;;;15.03;4.90;;;;;;;;;;5031164;28;20185;-71
2021/09/28 02:25:38;;;;;;;16.30;4.97;;;;;;;;;;5031740;28;20189;-71
2021/09/28 02:28:04;;;;;;;20.90;5.83;;;;;;;;;;5031282;28;20178;-71
2021/09/28 02:30:29;;;;;;;28.43;6.10;;;;;;;;;;5027119;28;20213;-72
2021/09/28 02:32:54;;;;;;;16.07;5.73;;;;;;;;;;5030902;28;20186;-71
2021/09/28 02:35:19;;;;;;;14.13;5.60;;;;;;;;;;5052883;28;20173;-71
2021/09/28 02:37:45;;;;;;;17.47;5.23;;;;;;;;;;5051955;28;20185;-71
2021/09/28 02:40:10;;;;;;;14.47;5.37;;;;;;;;;;5054205;28;20205;-71
2021/09/28 02:42:35;;;;;;;16.67;5.70;;;;;;;;;;5051177;28;20192;-72
2021/09/28 02:45:02;;;;;;;15.17;6.43;;;;;;;;;;5051901;28;20201;-71
2021/09/28 02:47:27;;;;;;;17.10;6.37;;;;;;;;;;5053237;28;20181;-71
2021/09/28 02:49:52;;;;;;;16.27;6.20;;;;;;;;;;5053534;28;20584;-71
2021/09/28 02:52:18;;;;;;;20.00;6.47;;;;;;;;;;5052053;28;20177;-71
2021/09/28 02:54:43;;;;;;;14.40;5.47;;;;;;;;;;5052854;28;20181;-70
2021/09/28 02:57:08;;;;;;;15.50;6.07;;;;;;;;;;5053218;28;20232;-70
2021/09/28 02:59:33;;;;;;;16.07;5.63;;;;;;;;;;5053034;28;20212;-70
2021/09/28 03:01:59;;;;;;;17.77;5.93;;;;;;;;;;5049955;28;20216;-69
2021/09/28 03:04:24;;;;;;;18.90;6.97;;;;;;;;;;5051260;28;20695;-70
2021/09/28 03:06:49;;;;;;;19.43;6.20;;;;;;;;;;5052108;28;20219;-70
2021/09/28 03:09:14;;;;;;;14.80;6.47;;;;;;;;;;5053211;28;20657;-69
2021/09/28 03:11:39;;;;;;;19.97;6.83;;;;;;;;;;5057494;28;20166;-71
2021/09/28 03:14:05;;;;;;;20.67;6.93;;;;;;;;;;5051704;28;20190;-70
2021/09/28 03:16:30;;;;;;;22.03;7.50;;;;;;;;;;5051849;28;20174;-71
2021/09/28 03:18:55;;;;;;;17.03;6.87;;;;;;;;;;5054384;28;20196;-71
2021/09/28 03:21:20;;;;;;;15.23;7.13;;;;;;;;;;5045454;28;20555;-71
2021/09/28 03:23:45;;;;;;;18.03;7.50;;;;;;;;;;5045232;28;20590;-72
2021/09/28 03:26:11;;;;;;;16.97;7.37;;;;;;;;;;5033940;28;20194;-71
2021/09/28 03:28:36;;;;;;;16.43;6.87;;;;;;;;;;5034165;28;20200;-71
2021/09/28 03:31:02;;;;;;;23.57;8.73;;;;;;;;;;5034178;28;20188;-71
2021/09/28 03:33:27;;;;;;;14.07;7.33;;;;;;;;;;5036668;28;20205;-70
2021/09/28 03:35:52;;;;;;;16.87;8.40;;;;;;;;;;5034711;28;20182;-71
2021/09/28 03:38:18;;;;;;;25.77;8.67;;;;;;;;;;5036976;28;20206;-70
2021/09/28 03:40:43;;;;;;;16.10;8.53;;;;;;;;;;5033530;28;20229;-71
2021/09/28 03:43:09;;;;;;;22.23;7.83;;;;;;;;;;5032752;28;20568;-72
2021/09/28 03:45:34;;;;;;;20.97;7.90;;;;;;;;;;5035202;28;20206;-68
2021/09/28 03:47:59;;;;;;;19.67;9.63;;;;;;;;;;5033517;28;20643;-69
2021/09/28 03:50:25;;;;;;;27.03;8.30;;;;;;;;;;5033855;28;21007;-71
2021/09/28 03:52:50;;;;;;;17.67;8.73;;;;;;;;;;5034644;28;20170;-71
2021/09/28 03:55:19;;;;;;;17.93;7.90;;;;;;;;;;5030475;28;20186;-71
2021/09/28 03:57:45;;;;;;;16.03;7.77;;;;;;;;;;5029931;28;20186;-70
2021/09/28 04:00:10;;;;;;;18.03;8.87;;;;;;;;;;5032247;28;20204;-71
2021/09/28 04:02:35;;;;;;;16.90;8.30;;;;;;;;;;5032978;28;21605;-71
2021/09/28 04:05:00;;;;;;;22.50;8.40;;;;;;;;;;5033332;28;20267;-71
2021/09/28 04:07:26;;;;;;;22.50;9.07;;;;;;;;;;5033486;28;20651;-69
2021/09/28 04:09:51;;;;;;;27.17;7.27;;;;;;;;;;5031366;28;20595;-71
2021/09/28 04:12:18;;;;;;;18.27;7.63;;;;;;;;;;5030630;28;20192;-72
2021/09/28 04:14:45;;;;;;;20.43;8.00;;;;;;;;;;5034268;28;20186;-71
2021/09/28 04:17:11;;;;;;;15.10;6.40;;;;;;;;;;5032201;28;20182;-70
2021/09/28 04:19:36;;;;;;;14.10;6.60;;;;;;;;;;5038013;28;20194;-71
2021/09/28 04:22:01;;;;;;;16.93;6.70;;;;;;;;;;5032659;28;20916;-71
2021/09/28 04:24:28;;;;;;;11.67;6.70;;;;;;;;;;5032702;28;20202;-70
2021/09/28 04:26:53;;;;;;;16.00;7.90;;;;;;;;;;5030962;28;20189;-70
2021/09/28 04:29:18;;;;;;;16.60;7.13;;;;;;;;;;5031593;28;20202;-70
2021/09/28 04:31:44;;;;;;;18.00;7.10;;;;;;;;;;5032329;28;20213;-71
2021/09/28 04:34:09;;;;;;;20.27;6.77;;;;;;;;;;5044661;28;20189;-72
2021/09/28 04:36:34;;;;;;;17.07;6.87;;;;;;;;;;5048486;28;20188;-72
2021/09/28 04:38:59;;;;;;;13.70;5.30;;;;;;;;;;5052750;28;20232;-71
2021/09/28 04:41:25;;;;;;;18.20;6.50;;;;;;;;;;5047691;28;20177;-71
2021/09/28 04:43:50;;;;;;;17.30;6.67;;;;;;;;;;5050814;28;20251;-70
2021/09/28 04:46:16;;;;;;;19.23;6.03;;;;;;;;;;5048648;28;20561;-71
2021/09/28 04:48:42;;;;;;;14.87;6.43;;;;;;;;;;5048645;28;20170;-71
2021/09/28 04:51:07;;;;;;;16.37;6.40;;;;;;;;;;5048907;28;20227;-70
2021/09/28 04:53:32;;;;;;;16.73;6.40;;;;;;;;;;5050550;28;20589;-70
2021/09/28 04:55:58;;;;;;;23.03;6.80;;;;;;;;;;5051159;28;20181;-71
2021/09/28 04:58:24;;;;;;;14.43;6.03;;;;;;;;;;5048940;28;20579;-71
2021/09/28 05:00:50;;;;;;;18.33;7.23;;;;;;;;;;5049101;28;20177;-72
2021/09/28 05:03:15;;;;;;;21.33;6.70;;;;;;;;;;5061735;28;20205;-71
2021/09/28 05:05:40;;;;;;;19.67;7.73;;;;;;;;;;5049642;28;20202;-71
2021/09/28 05:08:05;;;;;;;12.00;6.43;;;;;;;;;;5047729;28;20205;-70
2021/09/28 05:10:31;;;;;;;18.07;6.97;;;;;;;;;;5043466;28;20205;-71
2021/09/28 05:12:56;;;;;;;14.13;5.90;;;;;;;;;;5038320;28;20278;-71
2021/09/28 05:15:21;;;;;;;13.17;6.37;;;;;;;;;;5040169;28;20280;-71
2021/09/28 05:17:46;;;;;;;19.57;6.80;;;;;;;;;;5032749;28;20178;-72
2021/09/28 05:20:11;;;;;;;20.77;6.83;;;;;;;;;;5037274;28;20270;-72
2021/09/28 05:22:37;;;;;;;17.53;6.67;;;;;;;;;;5031783;28;20185;-72
2021/09/28 05:25:02;;;;;;;17.47;7.10;;;;;;;;;;5033334;28;20294;-71
2021/09/28 05:27:27;;;;;;;18.43;7.10;;;;;;;;;;5032815;28;20173;-72
2021/09/28 05:29:52;;;;;;;15.50;6.17;;;;;;;;;;5031501;28;20785;-72
2021/09/28 05:32:18;;;;;;;13.27;6.33;;;;;;;;;;5033391;28;20165;-72
2021/09/28 05:34:43;;;;;;;12.27;5.90;;;;;;;;;;5036298;28;20828;-72
2021/09/28 05:37:08;;;;;;;18.27;6.67;;;;;;;;;;5032870;28;20181;-72
2021/09/28 05:39:33;;;;;;;20.13;8.77;;;;;;;;;;5032553;28;20206;-72
2021/09/28 05:41:59;;;;;;;13.87;7.07;;;;;;;;;;5031410;28;20307;-72
2021/09/28 05:44:24;;;;;;;17.97;7.17;;;;;;;;;;5040706;28;20213;-70
2021/09/28 05:46:49;;;;;;;15.50;7.00;;;;;;;;;;5034767;28;20228;-70
2021/09/28 05:49:14;;;;;;;15.77;6.33;;;;;;;;;;5031808;28;20225;-72
2021/09/28 05:51:46;;;;;;;13.20;6.00;;;;;;;;;;5033968;28;20178;-72
2021/09/28 05:54:17;;;;;;;14.80;6.20;;;;;;;;;;5031929;28;20197;-71
2021/09/28 05:56:42;;;;;;;20.47;7.27;;;;;;;;;;5033108;28;20196;-71
2021/09/28 05:59:07;;;;;;;17.93;7.23;;;;;;;;;;5031716;28;20217;-72
2021/09/28 06:01:33;;;;;;;16.67;6.30;;;;;;;;;;5031127;28;20197;-71
2021/09/28 06:03:58;;;;;;;13.63;7.13;;;;;;;;;;5033902;28;20865;-72
2021/09/28 06:06:27;;;;;;;16.97;6.10;;;;;;;;;;5033662;28;20189;-70
2021/09/28 06:08:52;;;;;;;16.97;5.70;;;;;;;;;;5031487;28;20315;-72
2021/09/28 06:11:17;;;;;;;26.93;6.87;;;;;;;;;;5032859;28;20173;-71
2021/09/28 06:13:42;;;;;;;21.63;6.53;;;;;;;;;;5033436;28;20189;-71
2021/09/28 06:16:07;;;;;;;11.40;5.30;;;;;;;;;;5032683;28;20201;-70
2021/09/28 06:18:32;;;;;;;23.23;6.83;;;;;;;;;;5035382;28;20185;-71
2021/09/28 06:20:58;;;;;;;16.43;5.77;;;;;;;;;;5039895;28;20628;-70
2021/09/28 06:23:23;;;;;;;13.43;5.33;;;;;;;;;;5031511;28;20326;-71
2021/09/28 06:25:48;;;;;;;15.67;6.10;;;;;;;;;;5031747;28;20820;-71
2021/09/28 06:28:13;;;;;;;19.30;6.00;;;;;;;;;;5031957;28;20186;-71
2021/09/28 06:30:39;;;;;;;13.93;5.40;;;;;;;;;;5042949;28;20224;-71
2021/09/28 06:33:04;;;;;;;13.23;6.10;;;;;;;;;;5034091;28;20272;-72
2021/09/28 06:35:29;;;;;;;9.43;4.80;;;;;;;;;;5044466;28;20177;-72
2021/09/28 06:37:54;;;;;;;20.03;7.50;;;;;;;;;;5043216;28;20182;-72
2021/09/28 06:40:19;;;;;;;13.57;5.13;;;;;;;;;;5039904;28;20678;-72
2021/09/28 06:42:45;;;;;;;13.40;4.97;;;;;;;;;;5049882;28;20314;-72
2021/09/28 06:45:10;;;;;;;8.47;4.33;;;;;;;;;;5048764;28;20205;-73
2021/09/28 06:47:35;;;;;;;13.73;4.47;;;;;;;;;;5053988;28;20181;-70
2021/09/28 06:50:00;;;;;;;14.10;4.43;;;;;;;;;;5053380;28;20194;-73
2021/09/28 06:52:25;;;;;;;19.60;5.83;;;;;;;;;;5050314;28;20192;-71
2021/09/28 06:54:51;;;;;;;15.93;4.37;;;;;;;;;;5051095;28;20177;-71
2021/09/28 06:57:16;;;;;;;11.20;3.93;;;;;;;;;;5048799;28;20216;-71
2021/09/28 06:59:41;;;;;;;13.20;4.23;;;;;;;;;;5050659;28;20193;-71
2021/09/28 07:02:06;;;;;;;9.97;4.13;;;;;;;;;;5046461;28;20727;-71
2021/09/28 07:04:32;;;;;;;9.73;3.92;;;;;;;;;;5050589;28;20197;-73
2021/09/28 07:06:57;;;;;;;7.00;3.90;;;;;;;;;;5046373;28;20699;-69
2021/09/28 07:09:22;;;;;;;8.80;3.83;;;;;;;;;;5050640;28;20201;-70
2021/09/28 07:11:47;;;;;;;10.50;4.00;;;;;;;;;;5052297;28;20244;-69
2021/09/28 07:14:13;;;;;;;13.75;3.65;;;;;;;;;;5052321;28;20181;-73
2021/09/28 07:16:38;;;;;;;13.52;4.45;;;;;;;;;;5053827;28;20198;-70
2021/09/28 07:19:03;;;;;;;11.05;3.17;;;;;;;;;;5052250;28;20213;-71
2021/09/28 07:21:28;;;;;;;7.47;2.70;;;;;;;;;;5042033;28;20186;-70
2021/09/28 07:23:53;;;;;;;9.85;3.53;;;;;;;;;;5035806;28;20694;-70
2021/09/28 07:26:19;;;;;;;10.55;4.78;;;;;;;;;;5034896;28;20177;-69
2021/09/28 07:28:44;;;;;;;12.05;3.65;;;;;;;;;;5034739;28;20563;-70
2021/09/28 07:31:09;;;;;;;6.68;3.10;;;;;;;;;;5034016;28;20651;-70
2021/09/28 07:33:34;;;;;;;11.35;3.08;;;;;;;;;;5036522;28;20730;-70
2021/09/28 07:36:02;;;;;;;7.15;3.72;;;;;;;;;;5034508;28;20260;-70
2021/09/28 07:38:27;;;;;;;12.23;3.30;;;;;;;;;;5034160;28;20687;-70
2021/09/28 07:40:52;;;;;;;10.38;3.15;;;;;;;;;;5034589;28;20193;-71
2021/09/28 07:43:18;;;;;;;11.25;2.70;;;;;;;;;;5042146;28;20189;-70
2021/09/28 07:45:43;;;;;;;7.80;2.72;;;;;;;;;;5038574;28;22220;-70
2021/09/28 07:48:09;;;;;;;8.00;2.80;;;;;;;;;;5034543;28;20193;-70
2021/09/28 07:50:35;;;;;;;5.78;3.00;;;;;;;;;;5034976;28;20202;-70
2021/09/28 07:53:01;;;;;;;8.05;2.70;;;;;;;;;;5034641;28;20186;-70
2021/09/28 07:55:26;;;;;;;8.80;3.10;;;;;;;;;;5034271;28;20572;-70
2021/09/28 07:57:52;;;;;;;6.75;2.53;;;;;;;;;;5034041;28;20186;-70
2021/09/28 08:00:17;;;;;;;16.67;4.88;;;;;;;;;;5034913;28;20227;-70
2021/09/28 08:02:42;;;;;;;9.38;3.13;;;;;;;;;;5034226;28;20659;-71
2021/09/28 08:05:08;;;;;;;7.07;2.95;;;;;;;;;;5036364;28;20216;-70
2021/09/28 08:07:34;;;;;;;10.02;3.10;;;;;;;;;;5033920;28;20182;-72
2021/09/28 08:09:59;;;;;;;7.65;2.80;;;;;;;;;;5033315;28;20201;-70
2021/09/28 08:12:24;;;;;;;7.70;2.88;;;;;;;;;;5037143;28;20182;-70
2021/09/28 08:14:49;;;;;;;11.15;2.95;;;;;;;;;;5039436;28;20185;-69
2021/09/28 08:17:14;;;;;;;7.95;3.13;;;;;;;;;;5035930;28;20188;-70
2021/09/28 08:19:40;;;;;;;10.32;3.13;;;;;;;;;;5037975;28;20261;-71
2021/09/28 08:22:07;;;;;;;12.15;3.97;;;;;;;;;;5038938;28;20203;-71
2021/09/28 08:24:39;;;;;;;10.82;2.83;;;;;;;;;;5035357;28;20522;-71
2021/09/28 08:29:48;;;;;;;12.60;3.67;;;;;;;;;;5036680;28;20236;-72
2021/09/28 08:32:13;;;;;;;8.23;2.97;;;;;;;;;;5039300;28;20235;-72
2021/09/28 08:34:39;;;;;;;11.05;2.78;;;;;;;;;;5052302;28;20419;-72
2021/09/28 08:37:04;;;;;;;5.57;2.42;;;;;;;;;;5052416;28;20177;-71
2021/09/28 08:39:29;;;;;;;10.10;2.60;;;;;;;;;;5054130;28;20730;-71
2021/09/28 08:41:56;;;;;;;15.50;3.67;;;;;;;;;;5052491;28;20177;-72
2021/09/28 08:44:22;;;;;;;7.30;2.45;;;;;;;;;;5052365;28;20671;-70
2021/09/28 08:46:47;;;;;;;9.32;2.63;;;;;;;;;;5053037;28;20178;-70
2021/09/28 08:49:13;;;;;;;8.70;2.97;;;;;;;;;;5053252;28;20197;-71
2021/09/28 08:51:40;;;;;;;10.52;2.67;;;;;;;;;;5052448;28;20181;-71
2021/09/28 08:54:05;;;;;;;8.50;2.92;;;;;;;;;;5052097;28;20181;-71
2021/09/28 08:56:31;;;;;;;6.95;2.40;;;;;;;;;;5052452;28;20174;-71
2021/09/28 08:58:57;;;;;;;10.68;3.22;;;;;;;;;;5051888;28;20194;-71
2021/09/28 09:01:23;;;;;;;7.55;2.33;;;;;;;;;;5050997;28;20177;-71
2021/09/28 09:03:48;;;;;;;8.25;2.67;;;;;;;;;;5050868;28;20659;-71
2021/09/28 09:06:14;;;;;;;7.43;2.58;;;;;;;;;;5034791;28;20221;-70
2021/09/28 09:08:39;;;;;;;8.50;2.35;;;;;;;;;;5035365;28;20173;-71
2021/09/28 09:11:05;;;;;;;8.77;3.13;;;;;;;;;;5032622;28;20182;-71
2021/09/28 09:13:36;;;;;;;8.50;2.70;;;;;;;;;;5032414;28;20178;-70
2021/09/28 09:16:01;;;;;;;5.40;2.35;;;;;;;;;;5032024;28;20189;-71
2021/09/28 09:18:27;;;;;;;5.70;2.20;;;;;;;;;;5033927;28;20167;-71
2021/09/28 09:20:52;;;;;;;4.13;1.83;;;;;;;;;;5035511;28;20202;-70
2021/09/28 09:23:17;;;;;;;8.53;2.60;;;;;;;;;;5032022;28;20189;-71
2021/09/28 09:25:43;;;;;;;10.23;2.92;;;;;;;;;;5033192;28;20508;-70
2021/09/28 09:28:17;;;;;;;7.10;2.45;;;;;;;;;;5033559;28;20247;-69
2021/09/28 09:30:43;;;;;;;7.13;2.45;;;;;;;;;;5032880;28;20312;-70
2021/09/28 09:33:08;;;;;;;9.27;2.40;;;;;;;;;;5033609;28;20220;-69
2021/09/28 09:35:34;;;;;;;8.32;2.10;;;;;;;;;;5033107;28;20818;-70
2021/09/28 09:38:18;;;;;;;10.90;2.83;;;;;;;;;;5042996;28;20284;-70
2021/09/28 09:40:46;;;;;;;10.73;2.40;;;;;;;;;;5031850;28;20283;-70
2021/09/28 09:43:12;;;;;;;5.85;1.92;;;;;;;;;;5032729;28;20173;-69
2021/09/28 09:45:37;;;;;;;9.65;2.60;;;;;;;;;;5031854;28;20213;-70
2021/09/28 09:48:33;;;;;;;14.77;2.85;;;;;;;;;;5034094;28;21776;-70
2021/09/28 09:51:01;;;;;;;10.20;2.22;;;;;;;;;;5023471;28;20277;-69
2021/09/28 09:53:27;;;;;;;6.85;2.25;;;;;;;;;;5033031;28;20644;-69
2021/09/28 09:55:52;;;;;;;9.07;2.13;;;;;;;;;;5032640;28;20208;-69
2021/09/28 09:58:17;;;;;;;12.40;2.47;;;;;;;;;;5032286;28;20430;-69
2021/09/28 10:00:42;;;;;;;8.53;1.90;;;;;;;;;;5031425;28;20214;-69
2021/09/28 10:03:11;;;;;;;7.30;2.05;;;;;;;;;;5032049;28;20504;-70
2021/09/28 10:05:36;;;;;;;7.85;2.78;;;;;;;;;;5030652;28;20205;-70
2021/09/28 10:08:06;;;;;;;9.82;2.53;;;;;;;;;;5032619;28;20189;-70
2021/09/28 10:10:32;;;;;;;5.88;1.83;;;;;;;;;;5031817;28;20991;-69
2021/09/28 10:12:57;;;;;;;11.60;2.40;;;;;;;;;;5030672;28;20344;-69
2021/09/28 10:15:22;;;;;;;7.53;2.20;;;;;;;;;;5035718;28;20236;-69
2021/09/28 10:17:48;;;;;;;9.33;2.50;;;;;;;;;;5031937;28;20458;-69
2021/09/28 10:20:22;;;;;;;10.23;2.40;;;;;;;;;;5038722;28;20453;-70
2021/09/28 10:22:55;;;;;;;19.48;4.18;;;;;;;;;;5031882;28;20193;-68
2021/09/28 10:25:23;;;;;;;11.15;2.45;;;;;;;;;;5031300;28;20205;-69
2021/09/28 10:27:51;;;;;;;7.30;2.58;;;;;;;;;;5031915;28;20258;-69
2021/09/28 10:30:35;;;;;;;9.45;2.60;;;;;;;;;;5030198;28;20205;-70
2021/09/28 10:33:03;;;;;;;9.07;2.13;;;;;;;;;;5041468;28;20238;-69
2021/09/28 10:35:29;;;;;;;11.70;2.55;;;;;;;;;;5050330;28;20675;-70
2021/09/28 10:37:58;;;;;;;9.15;2.05;;;;;;;;;;5051280;28;20178;-70
2021/09/28 10:40:26;;;;;;;9.70;2.20;;;;;;;;;;5048031;28;20197;-70
2021/09/28 10:42:52;;;;;;;12.43;3.67;;;;;;;;;;5045964;28;20212;-70
2021/09/28 10:45:17;;;;;;;9.07;2.03;;;;;;;;;;5050559;28;20606;-70
2021/09/28 10:47:45;;;;;;;7.30;2.00;;;;;;;;;;5051180;28;20189;-71
2021/09/28 10:50:13;;;;;;;8.85;2.53;;;;;;;;;;5047429;28;20336;-70
2021/09/28 10:52:39;;;;;;;10.68;2.30;;;;;;;;;;5049148;28;20584;-70
2021/09/28 10:55:04;;;;;;;10.20;3.13;;;;;;;;;;5047092;28;20212;-70
2021/09/28 10:57:47;;;;;;;6.32;2.25;;;;;;;;;;5054677;28;20187;-70
2021/09/28 11:00:13;;;;;;;10.13;1.60;;;;;;;;;;5047048;28;20206;-70
2021/09/28 11:02:51;;;;;;;9.60;2.47;;;;;;;;;;5052703;28;20229;-70
2021/09/28 11:05:29;;;;;;;6.50;2.17;;;;;;;;;;5053607;28;20474;-70
2021/09/28 11:07:55;;;;;;;8.40;2.20;;;;;;;;;;5050619;28;20219;-70
2021/09/28 11:10:20;;;;;;;4.53;1.50;;;;;;;;;;5056004;28;20221;-70
2021/09/28 11:12:45;;;;;;;5.13;1.73;;;;;;;;;;5054472;28;20174;-70
2021/09/28 11:15:16;;;;;;;9.60;1.65;;;;;;;;;;5053722;28;20488;-70
2021/09/28 11:17:42;;;;;;;8.00;1.92;;;;;;;;;;5048669;28;20197;-70
2021/09/28 11:20:17;;;;;;;11.70;1.90;;;;;;;;;;5043364;28;20237;-70
2021/09/28 11:22:52;;;;;;;7.30;1.90;;;;;;;;;;5034764;28;20487;-70
2021/09/28 11:25:17;;;;;;;8.30;2.28;;;;;;;;;;5035286;28;20204;-69
2021/09/28 11:27:42;;;;;;;6.97;1.60;;;;;;;;;;5034944;28;20189;-69
2021/09/28 11:30:14;;;;;;;7.37;2.37;;;;;;;;;;5035768;28;20861;-70
2021/09/28 11:32:40;;;;;;;7.90;1.92;;;;;;;;;;5035927;28;20824;-70
2021/09/28 11:35:09;;;;;;;7.82;1.70;;;;;;;;;;5036897;28;20192;-70
2021/09/28 11:37:34;;;;;;;8.20;1.88;;;;;;;;;;5035249;28;20599;-71
2021/09/28 11:39:59;;;;;;;8.17;1.90;;;;;;;;;;5033510;28;20201;-70
2021/09/28 11:42:30;;;;;;;9.20;2.57;;;;;;;;;;5034607;28;20272;-70
2021/09/28 11:44:55;;;;;;;5.35;1.83;;;;;;;;;;5039491;28;20502;-70
2021/09/28 11:47:22;;;;;;;4.93;1.67;;;;;;;;;;5034905;28;20451;-70
2021/09/28 11:49:52;;;;;;;8.73;1.80;;;;;;;;;;5033638;28;20474;-70
2021/09/28 11:52:17;;;;;;;10.82;1.80;;;;;;;;;;5034173;28;20312;-70
2021/09/28 11:54:43;;;;;;;8.40;1.75;;;;;;;;;;5034284;28;20693;-70
2021/09/28 11:57:09;;;;;;;9.35;1.98;;;;;;;;;;5035085;28;20685;-69
2021/09/28 11:59:34;;;;;;;12.57;2.13;;;;;;;;;;5034703;28;21919;-70
2021/09/28 12:01:59;;;;;;;7.00;1.63;;;;;;;;;;5033854;28;20186;-70
2021/09/28 12:07:08;;;;;;;4.70;1.88;;;;;;;;;;5033609;28;20351;-70
2021/09/28 12:09:33;;;;;;;8.85;2.10;;;;;;;;;;5035033;28;20295;-69
2021/09/28 12:12:09;;;;;;;7.53;2.08;;;;;;;;;;5035129;28;20277;-69
2021/09/28 12:14:35;;;;;;;8.98;1.75;;;;;;;;;;5032971;28;20242;-69
2021/09/28 12:17:08;;;;;;;11.32;2.25;;;;;;;;;;5034419;28;20595;-69
2021/09/28 12:19:34;;;;;;;4.78;1.52;;;;;;;;;;5038995;28;20623;-69
2021/09/28 12:21:59;;;;;;;7.10;1.70;;;;;;;;;;5039091;28;20190;-69
2021/09/28 12:24:28;;;;;;;5.73;1.37;;;;;;;;;;5041815;28;20292;-69
2021/09/28 12:27:03;;;;;;;8.48;1.60;;;;;;;;;;5032985;28;20433;-69
2021/09/28 12:29:36;;;;;;;6.75;1.40;;;;;;;;;;5037598;28;20204;-70
2021/09/28 12:32:04;;;;;;;8.80;1.60;;;;;;;;;;5032711;28;20269;-69
2021/09/28 12:34:29;;;;;;;7.22;1.77;;;;;;;;;;5051185;28;20735;-69
2021/09/28 12:37:01;;;;;;;6.43;1.73;;;;;;;;;;5052736;28;20264;-69
2021/09/28 12:39:27;;;;;;;6.85;1.30;;;;;;;;;;5048759;28;20205;-70
2021/09/28 12:41:59;;;;;;;7.38;2.25;;;;;;;;;;5052277;28;20292;-69
2021/09/28 12:44:24;;;;;;;5.38;1.13;;;;;;;;;;5045541;28;20197;-70
2021/09/28 12:46:50;;;;;;;8.90;2.40;;;;;;;;;;5053003;28;20177;-69
2021/09/28 12:49:25;;;;;;;4.85;1.30;;;;;;;;;;5052248;28;20210;-70
2021/09/28 12:51:50;;;;;;;5.13;1.55;;;;;;;;;;5053185;28;20268;-70
2021/09/28 12:54:16;;;;;;;4.83;1.37;;;;;;;;;;5052801;28;20248;-69
2021/09/28 12:56:41;;;;;;;8.77;1.80;;;;;;;;;;5047339;28;20529;-70
2021/09/28 12:59:06;;;;;;;5.80;1.75;;;;;;;;;;5050117;28;20228;-70
2021/09/28 13:01:41;;;;;;;4.70;1.37;;;;;;;;;;5049275;28;20288;-70
2021/09/28 13:04:08;;;;;;;7.80;1.70;;;;;;;;;;5052506;28;20446;-70
2021/09/28 13:06:37;;;;;;;6.70;1.83;;;;;;;;;;5051824;28;20204;-70
2021/09/28 13:09:03;;;;;;;5.30;1.85;;;;;;;;;;5051884;28;20695;-70
2021/09/28 13:11:28;;;;;;;6.47;1.57;;;;;;;;;;5051320;28;20181;-70
2021/09/28 13:13:53;;;;;;;6.23;1.23;;;;;;;;;;5049570;28;20442;-69
2021/09/28 13:16:20;;;;;;;4.83;1.33;;;;;;;;;;5055738;28;20445;-70
2021/09/28 13:18:45;;;;;;;4.63;1.25;;;;;;;;;;5048101;28;20430;-69
2021/09/28 13:21:10;;;;;;;7.90;1.60;;;;;;;;;;5042994;28;20222;-70
2021/09/28 13:23:35;;;;;;;5.63;1.70;;;;;;;;;;5031631;28;20435;-69
2021/09/28 13:26:00;;;;;;;7.87;1.63;;;;;;;;;;5031890;28;20470;-70
2021/09/28 13:28:26;;;;;;;6.47;1.40;;;;;;;;;;5032767;28;20585;-70
2021/09/28 13:30:51;;;;;;;5.93;1.43;;;;;;;;;;5033419;28;20457;-73
2021/09/28 13:33:16;;;;;;;6.82;1.25;;;;;;;;;;5032622;28;21430;-70
2021/09/28 13:35:41;;;;;;;5.43;1.55;;;;;;;;;;5032746;28;20186;-69
2021/09/28 13:38:07;;;;;;;9.63;2.03;;;;;;;;;;5034721;28;20173;-69
2021/09/28 13:40:32;;;;;;;7.05;1.48;;;;;;;;;;5032090;28;20453;-69
2021/09/28 13:42:57;;;;;;;5.47;1.63;;;;;;;;;;5036725;28;20197;-70
2021/09/28 13:45:23;;;;;;;7.43;2.17;;;;;;;;;;5037393;28;20587;-70
2021/09/28 13:47:48;;;;;;;6.88;1.52;;;;;;;;;;5032583;28;21018;-69
2021/09/28 13:50:13;;;;;;;7.47;1.70;;;;;;;;;;5031771;28;20193;-70
2021/09/28 13:52:38;;;;;;;4.63;1.37;;;;;;;;;;5032503;28;20807;-69
2021/09/28 13:55:06;;;;;;;6.97;2.03;;;;;;;;;;5033414;28;20449;-69
2021/09/28 13:57:33;;;;;;;4.20;1.63;;;;;;;;;;5034130;28;20566;-70
2021/09/28 13:59:58;;;;;;;7.97;1.40;;;;;;;;;;5035755;28;21801;-69
2021/09/28 14:02:23;;;;;;;6.60;1.80;;;;;;;;;;5036058;28;20182;-70
2021/09/28 14:04:49;;;;;;;6.70;1.67;;;;;;;;;;5040833;28;20472;-70
2021/09/28 14:07:14;;;;;;;6.87;1.40;;;;;;;;;;5033317;28;20433;-70
2021/09/28 14:09:39;;;;;;;5.07;1.27;;;;;;;;;;5032036;28;21041;-70
2021/09/28 14:12:05;;;;;;;5.30;1.50;;;;;;;;;;5033001;28;20651;-70
2021/09/28 14:14:30;;;;;;;4.55;1.73;;;;;;;;;;5038932;28;20198;-69
2021/09/28 14:16:55;;;;;;;4.22;1.10;;;;;;;;;;5031906;28;20263;-70
2021/09/28 14:19:21;;;;;;;5.00;1.40;;;;;;;;;;5032190;28;20679;-70
2021/09/28 14:21:46;;;;;;;3.63;1.50;;;;;;;;;;5033376;28;20441;-69
2021/09/28 14:24:12;;;;;;;4.03;1.10;;;;;;;;;;5032791;28;20233;-70
2021/09/28 14:26:38;;;;;;;5.95;1.42;;;;;;;;;;5035268;28;20186;-70
2021/09/28 14:29:03;;;;;;;7.25;1.42;;;;;;;;;;5034270;28;20568;-70
2021/09/28 14:31:28;;;;;;;6.95;1.70;;;;;;;;;;5034100;28;20178;-69
2021/09/28 14:33:53;;;;;;;4.10;1.48;;;;;;;;;;5044148;28;20177;-70
2021/09/28 14:36:18;;;;;;;3.43;1.13;;;;;;;;;;5050305;28;20180;-70